createdAt,value
2023-02-01T00:03:54.080Z,4.90
2023-02-01T00:07:43.242Z,4.80
2023-02-01T00:11:44.678Z,5.00
2023-02-01T00:15:33.925Z,5.50
2023-02-01T00:19:24.024Z,4.80
2023-02-01T00:38:26.085Z,5.40
2023-02-01T00:42:19.802Z,5.20
2023-02-01T00:45:44.422Z,5.10
2023-02-01T00:49:33.576Z,5.00
2023-02-01T00:53:22.599Z,5.10
2023-02-01T00:57:01.971Z,4.70
2023-02-01T01:00:13.943Z,5.00
2023-02-01T01:03:46.871Z,4.60
2023-02-01T01:06:54.375Z,5.30
2023-02-01T01:10:43.788Z,4.90
2023-02-01T01:14:22.701Z,4.80
2023-02-01T01:18:12.165Z,5.00
2023-02-01T01:22:01.297Z,4.70
2023-02-01T01:25:49.053Z,4.80
2023-02-01T01:29:38.162Z,4.30
2023-02-01T01:33:13.217Z,4.60
2023-02-01T01:36:53.412Z,4.30
2023-02-01T01:40:42.424Z,4.20
2023-02-01T01:44:49.678Z,4.80
2023-02-01T01:48:35.997Z,4.00
2023-02-01T01:56:01.569Z,4.60
2023-02-01T01:59:50.562Z,4.50
2023-02-01T02:03:24.319Z,4.30
2023-02-01T02:07:01.948Z,4.50
2023-02-01T02:10:50.053Z,4.50
2023-02-01T02:14:39.037Z,3.70
2023-02-01T02:18:40.937Z,4.20
2023-02-01T02:22:45.454Z,3.60
2023-02-01T02:35:16.972Z,1.60
2023-02-01T02:39:42.885Z,0.80
2023-02-01T02:43:33.151Z,0.70
2023-02-01T02:47:23.371Z,0.80
2023-02-01T03:11:01.818Z,1.30
2023-02-01T03:14:47.520Z,1.70
2023-02-01T03:18:35.452Z,1.80
2023-02-01T03:22:06.039Z,1.80
2023-02-01T03:25:56.376Z,1.90
2023-02-01T03:29:47.306Z,1.90
2023-02-01T03:33:43.867Z,2.70
2023-02-01T03:45:37.001Z,3.40
2023-02-01T03:49:26.092Z,3.70
2023-02-01T03:53:15.508Z,4.00
2023-02-01T03:57:04.657Z,4.80
2023-02-01T04:12:51.965Z,5.20
2023-02-01T04:16:40.681Z,5.30
2023-02-01T04:20:29.989Z,5.10
2023-02-01T04:28:14.818Z,4.30
2023-02-01T04:48:04.888Z,3.10
2023-02-01T04:51:45.021Z,3.40
2023-02-01T04:55:32.831Z,3.20
2023-02-01T04:59:19.936Z,2.10
2023-02-01T05:03:07.809Z,2.30
2023-02-01T05:07:25.162Z,2.50
2023-02-01T05:11:14.191Z,3.10
2023-02-01T05:15:03.939Z,3.00
2023-02-01T05:18:46.584Z,2.70
2023-02-01T05:26:00.595Z,3.40
2023-02-01T05:37:51.644Z,2.90
2023-02-01T05:41:40.784Z,3.20
2023-02-01T05:45:29.905Z,3.50
2023-02-01T06:00:24.555Z,4.00
2023-02-01T06:04:13.873Z,3.90
2023-02-01T06:07:55.514Z,4.60
2023-02-01T06:11:44.863Z,4.70
2023-02-01T06:15:33.845Z,4.20
2023-02-01T06:19:24.982Z,3.90
2023-02-01T06:23:13.821Z,3.70
2023-02-01T06:50:10.242Z,3.90
2023-02-01T06:53:59.183Z,4.00
2023-02-01T06:57:48.293Z,3.90
2023-02-01T07:01:37.503Z,4.20
2023-02-01T07:05:26.786Z,3.70
2023-02-01T07:09:16.057Z,4.30
2023-02-01T07:13:05.481Z,3.70
2023-02-01T07:16:55.220Z,3.80
2023-02-01T07:32:34.877Z,4.30
2023-02-01T07:36:24.259Z,3.50
2023-02-01T07:40:06.827Z,4.70
2023-02-01T07:43:56.593Z,4.30
2023-02-01T07:47:45.648Z,4.50
2023-02-01T07:51:43.927Z,3.70
2023-02-01T07:55:32.931Z,5.60
2023-02-01T07:59:19.024Z,7.90
2023-02-01T08:02:58.881Z,6.70
2023-02-01T08:26:13.939Z,4.60
2023-02-01T08:30:03.514Z,6.50
2023-02-01T08:33:52.600Z,6.70
2023-02-01T08:37:41.930Z,5.20
2023-02-01T08:41:24.808Z,4.80
2023-02-01T08:45:13.016Z,4.60
2023-02-01T08:49:15.786Z,4.50
2023-02-01T08:53:09.744Z,4.50
2023-02-01T09:00:29.156Z,4.50
2023-02-01T09:04:24.200Z,5.00
2023-02-01T09:08:13.939Z,4.20
2023-02-01T09:12:04.545Z,3.90
2023-02-01T09:24:28.039Z,3.10
2023-02-01T09:28:18.987Z,3.90
2023-02-01T09:32:07.117Z,3.10
2023-02-01T09:35:56.244Z,4.20
2023-02-01T09:39:49.633Z,4.40
2023-02-01T09:44:06.393Z,4.30
2023-02-01T09:48:07.609Z,4.40
2023-02-01T09:51:49.833Z,4.00
2023-02-01T10:07:39.126Z,6.60
2023-02-01T10:11:33.198Z,3.90
2023-02-01T10:15:36.425Z,4.40
2023-02-01T10:27:13.402Z,3.80
2023-02-01T10:31:02.852Z,4.70
2023-02-01T10:35:04.318Z,4.00
2023-02-01T10:38:59.079Z,4.70
2023-02-01T10:58:25.479Z,4.60
2023-02-01T11:02:03.319Z,4.80
2023-02-01T11:05:52.435Z,5.30
2023-02-01T11:09:30.864Z,4.90
2023-02-01T11:29:06.734Z,4.90
2023-02-01T11:32:27.555Z,4.50
2023-02-01T11:36:04.336Z,3.70
2023-02-01T11:40:03.737Z,3.80
2023-02-01T11:44:00.270Z,5.10
2023-02-01T11:59:40.831Z,4.00
2023-02-01T12:03:47.169Z,4.70
2023-02-01T12:07:49.466Z,4.90
2023-02-01T12:20:07.384Z,4.80
2023-02-01T12:23:55.081Z,4.60
2023-02-01T12:27:42.356Z,5.70
2023-02-01T12:31:48.410Z,6.60
2023-02-01T12:50:55.327Z,4.90
2023-02-01T12:54:52.410Z,5.80
2023-02-01T12:58:56.628Z,4.90
2023-02-01T13:02:46.596Z,10.10
2023-02-01T13:06:35.036Z,11.40
2023-02-01T13:18:38.323Z,5.60
2023-02-01T13:22:35.040Z,5.60
2023-02-01T13:26:28.221Z,5.60
2023-02-01T13:38:35.691Z,6.20
2023-02-01T13:42:34.166Z,4.30
2023-02-01T13:46:32.366Z,4.30
2023-02-01T13:58:25.828Z,4.40
2023-02-01T14:02:20.582Z,4.50
2023-02-01T14:06:12.957Z,4.80
2023-02-01T14:10:34.320Z,5.70
2023-02-01T14:14:24.673Z,6.10
2023-02-01T14:22:33.413Z,5.70
2023-02-01T14:26:22.832Z,6.60
2023-02-01T14:30:18.719Z,6.20
2023-02-01T14:42:26.123Z,8.10
2023-02-01T14:46:20.396Z,7.30
2023-02-01T14:50:12.272Z,6.80
2023-02-01T15:01:57.335Z,9.10
2023-02-01T15:05:46.451Z,10.70
2023-02-01T15:09:39.317Z,8.80
2023-02-01T15:29:02.372Z,10.20
2023-02-01T15:32:51.721Z,11.20
2023-02-01T15:37:00.668Z,12.80
2023-02-01T15:40:53.385Z,11.40
2023-02-01T15:48:19.910Z,7.60
2023-02-01T15:51:51.720Z,8.80
2023-02-01T15:55:39.858Z,7.70
2023-02-01T15:59:09.788Z,6.90
2023-02-01T16:03:05.220Z,5.40
2023-02-01T16:29:13.716Z,4.80
2023-02-01T16:33:02.985Z,6.50
2023-02-01T16:36:41.692Z,8.40
2023-02-01T16:40:13.903Z,7.20
2023-02-01T16:44:02.980Z,10.50
2023-02-01T16:47:52.234Z,9.50
2023-02-01T16:51:41.262Z,7.50
2023-02-01T16:55:30.087Z,6.50
2023-02-01T16:59:19.263Z,6.90
2023-02-01T17:02:51.236Z,6.10
2023-02-01T17:06:26.123Z,8.10
2023-02-01T17:10:08.650Z,9.80
2023-02-01T17:13:57.714Z,9.40
2023-02-01T17:17:45.516Z,10.40
2023-02-01T17:21:34.627Z,10.50
2023-02-01T17:25:24.162Z,9.90
2023-02-01T17:29:05.580Z,7.90
2023-02-01T17:33:10.203Z,7.10
2023-02-01T17:37:06.779Z,7.90
2023-02-01T17:40:17.115Z,6.70
2023-02-01T18:06:34.412Z,6.60
2023-02-01T18:10:12.280Z,7.40
2023-02-01T18:13:54.512Z,8.20
2023-02-01T18:17:36.054Z,9.20
2023-02-01T18:21:25.245Z,8.00
2023-02-01T18:25:14.688Z,7.80
2023-02-01T18:29:03.060Z,6.00
2023-02-01T18:32:53.201Z,6.50
2023-02-01T18:36:42.482Z,5.90
2023-02-01T18:40:32.465Z,7.00
2023-02-01T18:44:05.157Z,8.60
2023-02-01T18:47:29.916Z,7.30
2023-02-01T18:51:19.817Z,6.80
2023-02-01T18:55:09.911Z,9.70
2023-02-01T18:59:01.902Z,8.00
2023-02-01T19:02:51.227Z,7.00
2023-02-01T19:06:40.326Z,6.70
2023-02-01T19:10:29.959Z,9.20
2023-02-01T19:14:11.955Z,7.50
2023-02-01T19:18:01.117Z,7.10
2023-02-01T19:21:50.350Z,8.00
2023-02-01T19:25:39.798Z,7.50
2023-02-01T19:45:05.824Z,6.10
2023-02-01T19:48:54.684Z,6.10
2023-02-01T19:52:43.752Z,5.60
2023-02-01T19:56:32.739Z,5.60
2023-02-01T20:00:20.917Z,5.80
2023-02-01T20:04:10.374Z,5.10
2023-02-01T20:07:42.506Z,5.80
2023-02-01T20:11:30.655Z,6.00
2023-02-01T20:15:20.347Z,5.40
2023-02-01T20:19:09.761Z,6.20
2023-02-01T20:22:41.566Z,6.30
2023-02-01T20:26:31.552Z,5.50
2023-02-01T20:30:21.098Z,5.90
2023-02-01T20:34:10.172Z,6.60
2023-02-01T20:37:36.832Z,6.20
2023-02-01T20:41:26.160Z,5.60
2023-02-01T20:45:06.115Z,6.30
2023-02-01T21:39:51.343Z,5.90
2023-02-01T21:43:40.616Z,5.40
2023-02-01T21:47:29.686Z,6.60
2023-02-01T21:51:18.852Z,4.60
2023-02-01T21:55:07.960Z,4.50
2023-02-01T21:58:57.003Z,4.40
2023-02-01T22:01:54.984Z,4.10
2023-02-01T22:05:44.074Z,4.40
2023-02-01T22:09:34.969Z,3.50
2023-02-01T22:13:25.000Z,5.10
2023-02-01T22:17:14.173Z,3.90
2023-02-01T22:21:04.563Z,4.00
2023-02-01T22:28:51.498Z,4.80
2023-02-01T22:32:40.532Z,4.50
2023-02-01T22:36:28.853Z,4.40
2023-02-01T22:40:07.758Z,4.50
2023-02-01T22:43:47.496Z,4.40
2023-02-01T22:47:39.512Z,5.10
2023-02-01T22:51:21.093Z,4.70
2023-02-01T22:55:10.906Z,3.80
2023-02-01T22:59:01.220Z,4.00
2023-02-01T23:06:30.035Z,3.60
2023-02-01T23:10:02.315Z,3.00
2023-02-01T23:14:10.717Z,5.00
2023-02-01T23:17:59.663Z,2.90
2023-02-01T23:21:36.843Z,2.80
2023-02-01T23:25:18.561Z,3.00
2023-02-01T23:29:07.543Z,2.90
2023-02-01T23:32:56.583Z,2.20
2023-02-01T23:36:46.154Z,2.20
2023-02-01T23:40:35.485Z,2.60
2023-02-01T23:44:24.999Z,2.70
2023-02-01T23:48:13.971Z,2.50
2023-02-01T23:52:31.319Z,2.80
2023-02-01T23:56:20.295Z,2.60
